Sweeney Granite Mountains, California Weather observations

Data are for 10 minute period ending at time listed.
 Day   Time   Solar   Ave.   Ave.  Ave.  Vector  Max.   Baro.   Total    
  of    of     Rad.   Air    Rel.  Wind   Wind   Wind  Press.  Precip.   
Year   Day            Temp.  Hum.  Speed  Dir.   Gust                    
2016   (PST)  Kw/m2    F      %     mph   deg.    mph    mb.     in.     
-------------------------------------------------------------------------
 176    1:10   0.00   80.0     9   12.0   272    17.3   868.8    0.00 
 176    1:20   0.00   79.6    10   11.4   278    15.9   868.8    0.00 
 176    1:30   0.00   79.2    10   10.8   280    14.2   868.9    0.00 
 176    1:40   0.00   78.8    10   11.8   272    15.2   868.8    0.00 
 176    1:50   0.00   78.6    10    9.8   288    14.1   868.8    0.00 
 176    2:00   0.00   78.5    10    9.7   286    13.0   868.7    0.00 
 176    2:10   0.00   79.0    10    9.7   298    14.8   868.7    0.00 
 176    2:20   0.00   80.1     9   11.2   307    18.8   868.8    0.00 
 176    2:30   0.00   80.0    10   10.2   308    16.0   868.8    0.00 
 176    2:40   0.00   79.8    10    8.9   300    14.9   868.8    0.00 
 176    2:50   0.00   79.9    10    9.6   312    15.7   868.7    0.00 
 176    3:00   0.00   80.3    10   10.9   318    18.4   868.8    0.00 
 176    3:10   0.00   79.3    10   10.2   314    14.5   868.8    0.00 
 176    3:20   0.00   78.9    10   10.9   302    16.0   868.8    0.00 
 176    3:30   0.00   79.2    10   11.4   317    18.9   868.9    0.00 
 176    3:40   0.00   79.8    10    9.7   319    15.2   869.0    0.00 
 176    3:50   0.00   79.2    10    6.4   258    14.2   869.1    0.00 
 176    4:00   0.00   78.4    10    2.4   290     5.2   869.1    0.00 
 176    4:10   0.00   78.0    10    1.9   212     5.0   869.1    0.00 
 176    4:20   0.00   76.3    11    2.6    82     5.9   869.1    0.00 
 176    4:30   0.00   74.9    11    2.3   116     6.4   869.1    0.00 
 176    4:40   0.00   74.9    11    3.3   250     7.0   869.1    0.00 
 176    4:50   0.00   76.1    11    4.4   272    11.8   869.1    0.00 
 176    5:00   0.01   77.5    11   10.2   313    16.4   869.2    0.00 
 176    5:10   0.01   78.2    11   10.7   314    19.8   869.2    0.00 
 176    5:20   0.01   78.8    11    9.3   329    15.0   869.2    0.00 
 176    5:30   0.03   79.4    10    8.1   323    16.1   869.2    0.00 
 176    5:40   0.03   79.1    11    9.7   321    18.2   869.3    0.00 
 176    5:50   0.15   79.6    10   11.2   316    18.3   869.4    0.00 
 176    6:00   0.19   80.3    10   10.0   308    17.5   869.4    0.00 
 176    6:10   0.23   80.4    10   10.2   299    17.5   869.4    0.00 
 176    6:20   0.26   80.5    10   11.1   305    15.8   869.5    0.00 
 176    6:30   0.30   81.0    10    5.1   225    12.9   869.7    0.00 
 176    6:40   0.33   83.2    10    2.2   265     4.1   869.9    0.00 
 176    6:50   0.37   83.5    10    2.1   300     5.7   869.9    0.00 
 176    7:00   0.41   83.2    10    2.9   284     7.7   869.8    0.00 
 176    7:10   0.45   84.6     9    2.9   217     6.6   869.8    0.00 
 176    7:20   0.48   84.7     9    3.0   188     6.9   869.8    0.00 
 176    7:30   0.52   85.5     9    3.1   203     7.1   869.9    0.00 
 176    7:40   0.56   85.4     9    4.7   256     9.6   870.0    0.00 
 176    7:50   0.59   85.4     9    4.3   125     9.2   870.1    0.00 
 176    8:00   0.63   85.9     9    2.9   129     7.6   870.2    0.00 
 176    8:10   0.66   86.6     9    2.9   142     6.3   870.2    0.00 
 176    8:20   0.69   88.0     8    3.2   142     7.5   870.0    0.00 
 176    8:30   0.72   86.3     9    6.8   100     9.4   870.0    0.00 
 176    8:40   0.75   86.7     9    5.0    98     9.6   870.1    0.00 
 176    8:50   0.78   88.4     8    4.6   103    13.9   870.1    0.00 
 176    9:00   0.81   88.9     7    4.6   122    12.7   870.1    0.00 
 176    9:10   0.84   89.0     7    4.0   182     9.3   870.1    0.00 
 176    9:20   0.86   90.2     7    4.0   196    13.3   870.1    0.00 
 176    9:30   0.89   89.3     7    5.3   266    10.6   870.1    0.00 
 176    9:40   0.91   90.2     6    6.4   273    13.7   870.1    0.00 
 176    9:50   0.92   89.3     7    7.6   223    14.0   870.1    0.00 
 176   10:00   0.94   89.9     7    5.6   264    12.9   870.1    0.00 
 176   10:10   0.96   90.5     7    5.9   227    12.6   870.1    0.00 
 176   10:20   0.97   89.6     8    7.3   265    14.1   870.1    0.00 
 176   10:30   0.98   88.3     8    7.9   284    15.3   870.1    0.00 
 176   10:40   0.99   88.8     8    8.9   282    15.8   870.0    0.00 
 176   10:50   1.00   89.1     8    8.3   271    18.1   870.1    0.00 
 176   11:00   1.01   89.7     8    8.8   289    15.9   870.1    0.00 
 176   11:10   1.01   90.5     8    8.3   282    19.7   870.0    0.00 
 176   11:20   1.02   89.9     8    8.0   234    15.6   870.0    0.00 
 176   11:30   1.02   89.7     8    8.9   231    21.5   869.9    0.00 
 176   11:40   1.02   90.2     8    7.1   222    17.3   869.9    0.00 
 176   11:50   1.03   91.1     8    7.1   243    15.6   869.8    0.00 
 176   12:00   1.02   90.3     9   11.0   244    22.6   869.7    0.00 
 176   12:10   1.02   90.8     9    7.9   229    15.0   869.7    0.00 
 176   12:20   0.99   90.9     9    6.7   210    15.6   869.7    0.00 
 176   12:30   1.02   91.6     9    7.1   215    19.6   869.6    0.00 
 176   12:40   1.01   91.3     9    7.4   223    15.1   869.5    0.00 
 176   12:50   1.01   91.4     9    7.7   213    17.9   869.4    0.00 
 176   13:00   1.00   92.0     8    6.4   225    18.7   869.4    0.00 
 176   13:10   0.99   91.3     8    7.4   220    16.8   869.3    0.00 
 176   13:20   0.98   91.6     8    8.3   228    18.2   869.3    0.00 
 176   13:30   0.96   93.1     8    6.0   242    14.5   869.2    0.00 
 176   13:40   0.95   92.4     8    5.6   213    13.0   869.0    0.00 
 176   13:50   0.93   92.6     8    7.2   227    15.6   868.9    0.00 
 176   14:00   0.91   93.4     7    3.2   237    10.7   868.7    0.00 
 176   14:10   0.89   93.8     7    6.3   211    16.8   868.7    0.00 
 176   14:20   0.87   94.0     7    3.9   216    14.8   868.6    0.00 
 176   14:30   0.85   94.4     7    5.1   203    16.4   868.5    0.00 
 176   14:40   0.82   93.5     7    5.5   226    16.4   868.5    0.00 
 176   14:50   0.80   94.8     7    3.5   219    12.0   868.3    0.00 
 176   15:00   0.77   93.9     7    3.9   123    11.8   868.2    0.00 
 176   15:10   0.74   94.6     7    4.5   195    11.4   868.1    0.00 
 176   15:20   0.70   94.0     7    5.4   224    15.2   867.9    0.00 
 176   15:30   0.67   93.4     8    4.9   227    10.6   867.8    0.00 
 176   15:40   0.64   93.8     8    4.8   154    10.7   867.7    0.00 
 176   15:50   0.60   94.1     8    4.0   199    10.4   867.6    0.00 
 176   16:00   0.57   94.5     7    3.8   234     9.3   867.5    0.00 
 176   16:10   0.54   94.6     7    4.2   195    11.1   867.4    0.00 
 176   16:20   0.50   94.7     8    3.2   232     9.1   867.3    0.00 
 176   16:30   0.47   94.2     8    4.9   253    10.7   867.2    0.00 
 176   16:40   0.44   93.8     7    4.5   234    10.2   867.1    0.00 
 176   16:50   0.40   94.7     7    4.4   310     8.6   867.0    0.00 
 176   17:00   0.37   94.0     7    3.4   224     8.1   866.9    0.00 
 176   17:10   0.33   94.4     7    4.3   219    11.5   866.9    0.00 
 176   17:20   0.29   92.9     7    6.2   225    13.0   866.9    0.00 
 176   17:30   0.26   93.4     7    3.8   237     8.8   866.9    0.00 
 176   17:40   0.22   93.6     7    3.2   288     7.3   866.8    0.00 
 176   17:50   0.19   93.8     7    2.9   241     8.6   866.9    0.00 
 176   18:00   0.03   90.7     8    5.4   235    10.8   866.9    0.00 
 176   18:10   0.01   89.2     8    4.0   237     9.7   867.0    0.00 
 176   18:20   0.01   88.9     8    2.5   260     6.2   867.1    0.00 
 176   18:30   0.01   88.0     9    3.5   258     7.4   867.2    0.00 
 176   18:40   0.01   86.3    10    3.6   292     4.8   867.2    0.00 
 176   18:50   0.00   85.5    10    3.0   288     3.9   867.3    0.00 
 176   19:00   0.00   84.7    10    1.8   295     2.8   867.4    0.00 
 176   19:10   0.00   83.5    10    3.4   290     4.5   867.5    0.00 
 176   19:20   0.00   83.9    10    2.6   274     5.2   867.5    0.00 
 176   19:30   0.00   84.0    10    2.9   266     5.4   867.5    0.00 
 176   19:40   0.00   82.9    10    3.1   287     6.7   867.6    0.00 
 176   19:50   0.00   83.7    10    6.2   300    13.0   867.7    0.00 
 176   20:00   0.00   84.8     9    5.2   309     8.0   867.7    0.00 
 176   20:10   0.00   84.3     9    4.6   344     7.7   867.8    0.00 
 176   20:20   0.00   85.5     9    4.9   336     7.6   867.9    0.00 
 176   20:30   0.00   83.6    10    2.0   303     3.1   868.0    0.00 
 176   20:40   0.00   83.5    10    7.7   327    13.4   868.1    0.00 
 176   20:50   0.00   83.8    10   11.3   310    17.1   868.2    0.00 
 176   21:00   0.00   82.8    10   13.4   308    19.4   868.2    0.00 
 176   21:10   0.00   82.8    10   11.6   317    16.5   868.3    0.00 
 176   21:20   0.00   83.1    10   12.2   312    17.2   868.3    0.00 
 176   21:30   0.00   83.0    10   10.9   312    18.6   868.3    0.00 
 176   21:40   0.00   82.9    10   10.3   311    14.3   868.4    0.00 
 176   21:50   0.00   82.0    10    9.9   301    12.9   868.4    0.00 
 176   22:00   0.00   80.9    11    8.7   292    11.2   868.5    0.00 
 176   22:10   0.00   80.4    11    7.8   286    10.0   868.5    0.00 
 176   22:20   0.00   80.3    11    8.8   295    11.4   868.5    0.00 
 176   22:30   0.00   80.2    11    8.0   289    10.2   868.6    0.00 
 176   22:40   0.00   80.7    11    7.5   267    10.4   868.5    0.00 
 176   22:50   0.00   80.7    11    6.0   272     8.1   868.5    0.00 
 176   23:00   0.00   81.3    10    6.2   271     7.9   868.5    0.00 
 176   23:10   0.00   80.8    11    4.3   275     6.1   868.5    0.00 
 176   23:20   0.00   78.1    12    3.5   278     4.4   868.6    0.00 
 176   23:30   0.00   77.1    12    4.0   280     5.1   868.6    0.00 
 176   23:40   0.00   77.8    12    3.1   292     3.7   868.6    0.00 
 176   23:50   0.00   76.1    12    2.8   289     3.7   868.6    0.00 
 177    0:00   0.00   74.2    13    2.3   281     3.6   868.5    0.00 
 177    0:10   0.00   74.7    13    4.4   282     5.3   868.5    0.00 
 177    0:20   0.00   76.6    13    4.6   278     5.5   868.5    0.00 
 177    0:30   0.00   76.3    13    5.3   277     6.0   868.5    0.00 
 177    0:40   0.00   76.0    13    5.5   279     6.4   868.5    0.00 
 177    0:50   0.00   76.5    13    4.6   280     6.0   868.5    0.00 
 177    1:00   0.00   76.4    13    4.0   272     5.0   868.5    0.00 

Return to Sweeney Granite Mountains graphs page.


Western Regional Climate Center,wrcc@dri.edu